Time;durP1;ratioP1;P1;durP2;ratioP2;P2;SDS_P1;SDS_P2;PMS_P1;PMS_P2;Temp;Humidity;BMP_temperature;BMP_pressure;BME280_temperature;BME280_humidity;BME280_pressure;Samples;Min_cycle;Max_cycle;Signal;HPM_P1;HPM_P2
2023/09/28 00:15:57;;;;;;;;;;;;;;;21.43;64.99;97352.91;596995;237;36796;-69
2023/09/28 00:21:41;;;;;;;;;;;;;;;21.43;65.27;97350.23;596920;237;40982;-68
2023/09/28 00:36:49;;;;;;;;;;;;;;;21.43;64.66;97346.76;597173;237;39822;-68
2023/09/28 00:42:29;;;;;;;;;;;;;;;21.42;64.50;97337.14;597072;237;40424;-68
2023/09/28 00:48:14;;;;;;;;;;;;;;;21.41;64.43;97330.97;597037;237;36841;-68
2023/09/28 00:57:18;;;;;;;;;;;;;;;21.42;64.67;97319.23;596987;237;38749;-70
2023/09/28 01:12:55;;;;;;;;;;;;;;;21.39;64.28;97314.41;582164;243;36975;-68
2023/09/28 01:18:38;;;;;;;;;;;;;;;21.38;63.18;97312.79;582000;243;41462;-69
2023/09/28 01:33:53;;;;;;;;;;;;;;;21.37;64.01;97308.52;597167;237;36844;-69
2023/09/28 01:45:38;;;;;;;;;;;;;;;;;;;;;
2023/09/28 01:51:31;;;;;;;;;;;;;;;21.36;64.23;97316.77;564640;249;36806;-68
2023/09/28 02:06:33;;;;;;;;;;;;;;;21.36;64.15;97322.11;564643;248;36166;-67
2023/09/28 02:21:48;;;;;;;;;;;;;;;21.35;64.10;97315.17;597247;237;39953;-68
2023/09/28 02:27:34;;;;;;;;;;;;;;;21.34;63.18;97319.72;578963;237;40829;-68
2023/09/28 02:33:17;;;;;;;;;;;;;;;21.34;63.22;97316.25;597214;237;38687;-67
2023/09/28 02:48:17;;;;;;;;;;;;;;;21.34;63.86;97319.72;597076;237;37131;-69
2023/09/28 03:00:27;;;;;;;;;;;;;;;21.32;63.55;97321.84;597121;237;36935;-67
2023/09/28 03:06:10;;;;;;;;;;;;;;;21.32;64.11;97332.55;597032;237;41389;-68
2023/09/28 03:21:24;;;;;;;;;;;;;;;21.30;63.91;97329.32;597072;237;36948;-67
2023/09/28 03:33:27;;;;;;;;;;;;;;;21.29;64.01;97333.08;597096;237;37004;-68
2023/09/28 03:39:11;;;;;;;;;;;;;;;21.28;63.62;97336.83;597036;237;41122;-68
2023/09/28 03:48:21;;;;;;;;;;;;;;;21.27;63.46;97344.02;597065;237;38007;-68
2023/09/28 03:54:05;;;;;;;;;;;;;;;21.27;63.53;97351.24;597096;237;41254;-68
2023/09/28 04:03:31;;;;;;;;;;;;;;;21.25;63.53;97342.67;596884;237;36753;-68
2023/09/28 04:09:16;;;;;;;;;;;;;;;21.23;63.33;97350.98;597055;237;38491;-68
2023/09/28 04:15:00;;;;;;;;;;;;;;;21.24;63.33;97354.45;597206;237;37069;-68
2023/09/28 04:20:44;;;;;;;;;;;;;;;21.23;63.51;97360.87;597151;237;36827;-69
2023/09/28 04:26:28;;;;;;;;;;;;;;;21.24;62.98;97371.28;597119;237;36847;-68
2023/09/28 04:38:33;;;;;;;;;;;;;;;21.25;63.35;97380.09;596963;237;38944;-69
2023/09/28 04:44:16;;;;;;;;;;;;;;;21.24;63.14;97376.63;596998;237;40095;-68
2023/09/28 04:53:27;;;;;;;;;;;;;;;21.24;63.62;97379.30;597012;237;37203;-68
2023/09/28 04:59:11;;;;;;;;;;;;;;;21.24;63.90;97383.84;597005;237;39630;-68
2023/09/28 05:24:00;;;;;;;;;;;;;;;21.22;63.83;97391.32;597003;237;38100;-68
2023/09/28 05:29:44;;;;;;;;;;;;;;;21.20;63.61;97388.13;597102;237;41600;-68
2023/09/28 05:38:59;;;;;;;;;;;;;;;21.20;63.46;97393.47;596934;237;37208;-69
2023/09/28 05:44:43;;;;;;;;;;;;;;;21.18;63.64;97399.06;597113;237;41115;-68
2023/09/28 06:09:47;;;;;;;;;;;;;;;21.19;58.93;97405.21;597445;236;38971;-65
2023/09/28 06:15:32;;;;;;;;;;;;;;;21.20;63.61;97398.82;598004;236;41720;-64
2023/09/28 06:30:56;;;;;;;;;;;;;;;21.19;63.38;97410.55;597876;235;40997;-65
2023/09/28 06:46:17;;;;;;;;;;;;;;;21.21;64.16;97400.41;597918;236;37114;-64
2023/09/28 07:01:40;;;;;;;;;;;;;;;21.22;64.48;97415.38;597970;236;37450;-66
2023/09/28 07:16:50;;;;;;;;;;;;;;;21.24;64.72;97421.27;597980;236;40337;-65
2023/09/28 07:28:49;;;;;;;;;;;;;;;21.23;64.60;97433.84;597748;236;41471;-67
2023/09/28 07:34:33;;;;;;;;;;;;;;;21.23;64.79;97446.41;597835;237;41017;-66
2023/09/28 07:43:24;;;;;;;;;;;;;;;21.24;65.18;97442.66;598046;236;39708;-64
2023/09/28 07:49:08;;;;;;;;;;;;;;;21.23;65.05;97436.52;597973;236;37147;-64
2023/09/28 08:13:57;;;;;;;;;;;;;;;21.22;67.79;97440.23;597679;236;37893;-64
2023/09/28 08:25:55;;;;;;;;;;;;;;;21.21;66.08;97438.63;598037;236;37103;-66
2023/09/28 09:01:13;;;;;;;;;;;;;;;21.22;65.67;97418.84;591501;239;41817;-64
2023/09/28 09:10:14;;;;;;;;;;;;;;;21.24;66.99;97421.27;591499;239;36883;-66
2023/09/28 09:35:21;;;;;;;;;;;;;;;21.25;66.18;97398.80;591460;240;41443;-69
2023/09/28 09:41:05;;;;;;;;;;;;;;;21.27;64.29;97394.01;591570;239;37107;-64
2023/09/28 09:46:52;;;;;;;;;;;;;;;21.29;67.18;97402.58;591726;239;37346;-65
2023/09/28 10:15:09;;;;;;;;;;;;;;;21.22;65.04;97385.97;582456;242;37140;-65
2023/09/28 10:20:52;;;;;;;;;;;;;;;21.22;65.53;97376.08;582581;242;36941;-67
2023/09/28 10:30:19;;;;;;;;;;;;;;;21.24;65.29;97378.50;582421;242;37269;-66
2023/09/28 10:36:12;;;;;;;;;;;;;;;21.23;65.87;97374.23;582662;242;36788;-66
2023/09/28 10:45:32;;;;;;;;;;;;;;;21.24;65.86;97370.48;591239;240;37390;-64
2023/09/28 10:51:20;;;;;;;;;;;;;;;21.24;65.90;97362.47;591449;239;37236;-64
2023/09/28 11:03:34;;;;;;;;;;;;;;;21.24;66.50;97357.12;591354;240;37064;-64
2023/09/28 11:09:19;;;;;;;;;;;;;;;21.23;67.50;97353.65;591528;239;39837;-66
2023/09/28 11:18:36;;;;;;;;;;;;;;;21.23;65.94;97361.67;591394;239;37374;-67
2023/09/28 11:24:21;;;;;;;;;;;;;;;21.24;67.87;97357.91;591514;239;36928;-65
2023/09/28 11:39:45;;;;;;;;;;;;;;;21.23;68.98;97361.67;591512;239;37029;-65
2023/09/28 11:51:46;;;;;;;;;;;;;;;21.23;68.47;97356.32;591453;239;41047;-65
2023/09/28 11:57:34;;;;;;;;;;;;;;;21.23;68.42;97342.16;591525;239;41061;-64
2023/09/28 12:06:48;;;;;;;;;;;;;;;21.24;68.10;97338.41;591337;239;41173;-65
2023/09/28 12:12:33;;;;;;;;;;;;;;;21.24;67.48;97335.73;591391;239;37127;-64
2023/09/28 12:27:51;;;;;;;;;;;;;;;21.23;67.79;97329.59;591463;239;37004;-65
2023/09/28 12:43:22;;;;;;;;;;;;;;;21.25;67.78;97322.12;591617;239;41577;-66
2023/09/28 13:01:50;;;;;;;;;;;;;;;21.25;67.06;97315.95;591440;239;37084;-67
2023/09/28 13:04:19;;;;;;;;;;;;;;;21.25;67.60;97318.62;588917;240;42741;-67
2023/09/28 13:10:04;;;;;;;;;;;;;;;21.26;68.99;97318.37;591417;239;41179;-66
2023/09/28 13:15:47;;;;;;;;;;;;;;;21.28;67.11;97318.11;591369;239;37121;-66
2023/09/28 13:40:34;;;;;;;;;;;;;;;21.27;66.88;97305.80;591509;239;39868;-67
2023/09/28 13:46:18;;;;;;;;;;;;;;;21.27;67.00;97306.59;591258;239;41488;-68
2023/09/28 14:04:46;;;;;;;;;;;;;;;21.25;67.38;97299.91;591446;239;36932;-65
2023/09/28 14:10:30;;;;;;;;;;;;;;;21.25;67.41;97299.91;591547;239;36634;-65
2023/09/28 14:16:08;;;;;;;;;;;;;;;21.24;67.28;97293.77;591431;239;36922;-65
2023/09/28 14:21:52;;;;;;;;;;;;;;;21.26;67.45;97296.19;591312;239;41106;-67
2023/09/28 14:27:36;;;;;;;;;;;;;;;21.31;61.08;97298.88;591512;239;36852;-66
2023/09/28 14:37:01;;;;;;;;;;;;;;;21.31;66.70;97304.22;591208;240;41757;-67
2023/09/28 14:42:45;;;;;;;;;;;;;;;21.30;67.12;97299.92;591359;239;36971;-67
2023/09/28 14:58:05;;;;;;;;;;;;;;;21.27;63.00;97303.92;591520;239;36004;-67
2023/09/28 15:22:59;;;;;;;;;;;;;;;21.40;65.15;97307.98;591540;239;41420;-67
2023/09/28 15:28:44;;;;;;;;;;;;;;;21.42;64.96;97315.75;591473;239;37029;-68
2023/09/28 15:37:52;;;;;;;;;;;;;;;21.43;65.17;97328.84;591416;239;36907;-67
2023/09/28 15:43:36;;;;;;;;;;;;;;;21.43;65.18;97326.16;591545;239;41192;-67
2023/09/28 16:02:01;;;;;;;;;;;;;;;21.44;65.42;97334.98;591513;239;37063;-66
2023/09/28 16:07:45;;;;;;;;;;;;;;;21.43;65.34;97334.19;591565;239;41370;-67
2023/09/28 16:22:51;;;;;;;;;;;;;;;21.44;65.49;97337.66;591479;239;36952;-68
2023/09/28 16:28:30;;;;;;;;;;;;;;;21.43;65.21;97342.21;591577;239;37152;-67
2023/09/28 16:34:14;;;;;;;;;;;;;;;21.44;65.65;97343.83;591436;239;41594;-67
2023/09/28 16:49:08;;;;;;;;;;;;;;;21.44;65.39;97343.83;591525;239;36853;-67
2023/09/28 16:54:52;;;;;;;;;;;;;;;21.44;65.45;97351.86;591426;239;41033;-69
2023/09/28 17:10:06;;;;;;;;;;;;;;;21.44;65.42;97378.59;591639;239;41053;-68
2023/09/28 17:15:49;;;;;;;;;;;;;;;21.44;65.26;97381.27;591295;239;40980;-68
2023/09/28 17:31:29;;;;;;;;;;;;;;;21.44;65.72;97383.94;591501;239;37004;-67
2023/09/28 17:37:13;;;;;;;;;;;;;;;21.44;65.15;97399.16;591479;239;37245;-68
2023/09/28 17:52:17;;;;;;;;;;;;;;;21.44;65.68;97402.66;591500;239;41295;-67
2023/09/28 18:04:23;;;;;;;;;;;;;;;21.45;65.32;97416.83;591705;239;37269;-67
2023/09/28 18:10:08;;;;;;;;;;;;;;;21.44;65.54;97420.55;591629;239;36895;-68
2023/09/28 18:25:40;;;;;;;;;;;;;;;21.44;66.17;97416.03;591457;239;37003;-68
2023/09/28 18:31:24;;;;;;;;;;;;;;;21.44;66.16;97431.24;591583;239;37259;-67
2023/09/28 18:40:58;;;;;;;;;;;;;;;21.43;66.03;97435.80;591405;239;39967;-69
2023/09/28 18:46:41;;;;;;;;;;;;;;;21.44;65.92;97442.77;591521;239;41180;-68
2023/09/28 18:52:25;;;;;;;;;;;;;;;21.43;66.28;97435.80;591436;239;40022;-67
2023/09/28 18:58:09;;;;;;;;;;;;;;;21.44;66.23;97441.94;591438;239;37188;-67
2023/09/28 19:03:53;;;;;;;;;;;;;;;21.44;66.32;97437.42;591531;239;36960;-67
2023/09/28 19:13:18;;;;;;;;;;;;;;;21.44;66.11;97441.94;591345;240;41241;-69
2023/09/28 19:19:02;;;;;;;;;;;;;;;21.44;66.36;97449.95;591415;239;36851;-68
2023/09/28 19:24:41;;;;;;;;;;;;;;;21.44;66.20;97458.81;591353;240;36844;-67
2023/09/28 19:30:25;;;;;;;;;;;;;;;21.44;66.58;97460.66;591551;239;36942;-67
2023/09/28 19:39:27;;;;;;;;;;;;;;;21.43;66.46;97462.53;591541;239;36855;-67
2023/09/28 19:45:11;;;;;;;;;;;;;;;;;;;;;
2023/09/28 20:00:26;;;;;;;;;;;;;;;21.42;66.21;97468.95;582416;242;40150;-68
2023/09/28 20:06:10;;;;;;;;;;;;;;;21.43;66.25;97480.45;582534;242;41375;-67
2023/09/28 20:21:28;;;;;;;;;;;;;;;21.42;66.35;97476.98;591471;239;39956;-67
2023/09/28 20:27:12;;;;;;;;;;;;;;;21.43;66.72;97480.45;591480;239;41796;-67
2023/09/28 20:36:26;;;;;;;;;;;;;;;21.42;66.39;97478.85;591530;239;36520;-67
2023/09/28 20:42:09;;;;;;;;;;;;;;;21.42;66.90;97470.83;591681;239;36952;-67
2023/09/28 20:57:29;;;;;;;;;;;;;;;21.42;67.25;97465.48;591496;239;36875;-67
2023/09/28 21:09:31;;;;;;;;;;;;;;;21.41;67.13;97461.98;591420;240;36906;-67
2023/09/28 21:15:10;;;;;;;;;;;;;;;21.41;66.51;97461.19;591497;239;36987;-68
2023/09/28 21:30:13;;;;;;;;;;;;;;;21.42;67.05;97460.14;591528;239;41056;-68
2023/09/28 21:42:19;;;;;;;;;;;;;;;21.40;66.92;97456.91;591590;239;36943;-67
2023/09/28 21:48:03;;;;;;;;;;;;;;;21.40;66.89;97455.03;591596;239;41495;-67
2023/09/28 21:57:15;;;;;;;;;;;;;;;21.41;67.20;97451.28;591449;239;37014;-67
2023/09/28 22:03:00;;;;;;;;;;;;;;;21.40;67.38;97444.34;591595;239;36946;-67
2023/09/28 22:12:37;;;;;;;;;;;;;;;21.40;67.90;97440.87;591522;239;41330;-68
2023/09/28 22:18:20;;;;;;;;;;;;;;;21.40;67.01;97457.70;591518;239;36828;-68
2023/09/28 22:36:51;;;;;;;;;;;;;;;21.40;67.21;97449.69;591613;239;36675;-68
2023/09/28 22:42:35;;;;;;;;;;;;;;;21.40;67.49;97456.91;591526;239;41474;-67
2023/09/28 22:54:34;;;;;;;;;;;;;;;21.39;67.20;97448.09;591644;239;36764;-67
2023/09/28 23:00:19;;;;;;;;;;;;;;;21.39;67.21;97448.09;582687;242;41133;-67
2023/09/28 23:09:32;;;;;;;;;;;;;;;21.40;66.89;97440.87;582524;242;40882;-67
2023/09/28 23:15:15;;;;;;;;;;;;;;;21.39;66.74;97441.92;582756;242;36912;-67
2023/09/28 23:24:52;;;;;;;;;;;;;;;21.39;66.68;97445.42;582569;242;41408;-69
2023/09/28 23:30:38;;;;;;;;;;;;;;;21.39;66.38;97436.57;582684;242;41040;-68
2023/09/28 23:42:38;;;;;;;;;;;;;;;21.38;66.40;97432.30;591597;240;36807;-67
2023/09/28 23:48:22;;;;;;;;;;;;;;;21.38;67.62;97441.12;591515;239;36861;-67
2023/09/28 23:57:35;;;;;;;;;;;;;;;21.38;67.00;97451.81;591478;239;40845;-67
